AirNav   Everest Fuels
 
 1501 users online  

1MD8 Mayberry Run Airport
Westminster/Silver Run, Maryland, USA

GOING TO WESTMINSTER/SILVER RUN?


FAA INFORMATION EFFECTIVE 30 JANUARY 2020

Location

FAA Identifier: 1MD8
Lat/Long: 39-40-58.3590N 077-05-49.9370W
39-40.972650N 077-05.832283W
39.6828775,-77.0972047
(estimated)
Elevation: 580 ft. / 177 m (estimated)
Variation: 10W (1985)
From city: 3 miles W of central business district of the associated city
Time zone: UTC -5 (UTC -4 during Daylight Saving Time)
Zip code: 21787

Airport Operations

Airport use: Private use. Permission required prior to landing
Activation date: 04/1982
Control tower: no
ARTCC: WASHINGTON CENTER
FSS: LEESBURG FLIGHT SERVICE STATION
Attendance: UNATNDD
Wind indicator: yes
Segmented circle: no

Airport Communications

WX AWOS-3 at DMW (6 nm SE): 121.25 (410-876-1281)
WX ASOS at THV (17 nm NE): 119.275 (717-792-5529)

Nearby radio navigation aids

VOR radial/distance  VOR name  Freq  Var
EMIr342/12.5WESTMINSTER VORTAC117.9008W
FDKr046/(20.7)FREDERICK VOR109.0008W
HGRr098/(35.0)HAGERSTOWN VOR109.8007W
BALr338/36.8BALTIMORE VORTAC115.1011W
HARr192/37.2HARRISBURG VORTAC112.5010W
MRBr070/39.1MARTINSBURG VORTAC112.1007W

 
NDB name  Hdg/Dist  Freq  Var  ID
ELLICOTT339/28.037111WFND ..-. -. -..

Airport Services

Runway Information

Runway 6/24

Dimensions: 1500 x 50 ft. / 457 x 15 m
200' OVER RUN END RWY 06.
Surface: turf
RUNWAY 6  RUNWAY 24
Traffic pattern: leftleft
Obstructions: 59 ft. trees, 225 ft. from runway46 ft. trees, 574 ft. from runway

Airport Ownership and Management from official FAA records

Ownership: Privately-owned
Owner: JOHN MILLION
2900 KUMPSTATION ROAD
TANEYTOWN, MD 21787
Phone 410-259-3111
Manager: JOHN MILLION
2900 KUMPSTATION ROAD
TANEYTOWN, MD 21787
Phone 410-259-3111

Airport Operational Statistics

Aircraft based on the field: 3
Single engine airplanes: 3
    

Additional Remarks

FOR CD CTC POTOMAC APCH AT 866-429-5882.

Instrument Procedures

There are no published instrument procedures at 1MD8.

Some nearby airports with instrument procedures:

KDMW - Carroll County Regional Airport/Jack B Poage Field (6 nm SE)
W05 - Gettysburg Regional Airport (13 nm NW)
2W2 - Clearview Airpark (13 nm S)
KTHV - York Airport (17 nm NE)
KFDK - Frederick Municipal Airport (20 nm SW)
 
Loc | Ops | Rwys | IFR | FBO | Links
Com | Nav | Svcs | Stats | Notes
Area around 1MD8 (Mayberry Run Airport)
 
Road maps at: MapQuest Bing Google
 
Aerial photo
No photo
 
Sectional chart

 
Airport distance calculator
Flying to Mayberry Run Airport? Find the distance to fly.

From to 1MD8

Sunrise and sunset
Times for 24-Feb-2020
 Local
(UTC-5)
 Zulu
(UTC)
Morning civil twilight06:2311:23
Sunrise06:5011:50
Sunset17:5422:54
Evening civil twilight18:2123:21

Current date and time
Zulu (UTC)  24-Feb-2020 20:52:24
Local (UTC-5)  24-Feb-2020 15:52:24
 
METAR
KDMW 
6nm SE 
242025Z AUTO 15006KT 10SM CLR 16/M04 A2993 RMK AO2
KTHV 
17nm NE 
241953Z AUTO 00000KT 10SM OVC090 15/M07 A2994 RMK AO2 SLP143 T01501067
TAF
KMDT 
35nm NE 
241741Z 2418/2518 00000KT P6SM SCT090 OVC200 FM242000 VRB03KT P6SM OVC250 FM250800 06002KT P6SM OVC070 PROB30 2508/2509 4SM -RA OVC050 FM251000 00000KT 4SM -RA BR OVC025 FM251200 00000KT 1 1/2SM -RA BR OVC015
KBWI 
36nm SE 
241727Z 2418/2524 16005KT P6SM SCT070 BKN130 OVC200 FM250800 15004KT 3SM -RA BR BKN008 OVC015 FM251100 11005KT 2SM -RADZ BR BKN003 OVC008 FM251500 07005KT 2SM -DZ BR BKN005 OVC015 FM251900 05005KT 5SM -DZ BR BKN008 OVC015
KMTN 
38nm SE 
241727Z 2418/2518 13005KT P6SM SCT070 BKN130 OVC200 FM250800 13004KT 3SM -RA BR BKN008 OVC015 FM251100 10005KT 1SM -RADZ BR BKN003 OVC008 FM251500 06005KT 2SM -DZ BR BKN005 OVC015
NOTAMs
Click for the latest NOTAMs
NOTAMs are issued by the DoD/FAA and will open in a separate window not controlled by AirNav.

 

 
 

Would you like to see your business listed on this page?

 If your business provides an interesting product or service to pilots, flight crews, aircraft, or users of the Mayberry Run Airport, you should consider listing it here.  To start the listing process, click on the button below
 
Add a business
 

Other Pages about Mayberry Run Airport

Update a link
 
Copyright © AirNav, LLC. All rights reserved. Privacy Policy  Contact